sensor_id;sensor_type;location;lat;lon;timestamp;temperature;humidity
6178;DHT22;3122;48.208;11.174;2023-07-13T00:04:09;18.50;2.50
6178;DHT22;3122;48.208;11.174;2023-07-13T00:09:15;18.50;3.00
6178;DHT22;3122;48.208;11.174;2023-07-13T00:14:16;18.40;2.70
6178;DHT22;3122;48.208;11.174;2023-07-13T00:19:17;18.30;4.40
6178;DHT22;3122;48.208;11.174;2023-07-13T00:24:18;18.40;5.00
6178;DHT22;3122;48.208;11.174;2023-07-13T00:29:25;18.30;7.00
6178;DHT22;3122;48.208;11.174;2023-07-13T00:34:26;18.30;5.40
6178;DHT22;3122;48.208;11.174;2023-07-13T00:39:27;18.30;5.50
6178;DHT22;3122;48.208;11.174;2023-07-13T00:44:28;18.30;4.30
6178;DHT22;3122;48.208;11.174;2023-07-13T00:49:30;18.30;6.70
6178;DHT22;3122;48.208;11.174;2023-07-13T00:54:38;18.30;5.60
6178;DHT22;3122;48.208;11.174;2023-07-13T00:59:43;18.30;7.60
6178;DHT22;3122;48.208;11.174;2023-07-13T01:04:45;18.30;4.90
6178;DHT22;3122;48.208;11.174;2023-07-13T01:09:46;18.30;5.60
6178;DHT22;3122;48.208;11.174;2023-07-13T01:14:46;18.30;7.40
6178;DHT22;3122;48.208;11.174;2023-07-13T01:19:47;18.20;9.10
6178;DHT22;3122;48.208;11.174;2023-07-13T01:24:48;18.20;10.40
6178;DHT22;3122;48.208;11.174;2023-07-13T01:29:48;18.20;9.20
6178;DHT22;3122;48.208;11.174;2023-07-13T01:34:51;18.20;9.50
6178;DHT22;3122;48.208;11.174;2023-07-13T01:39:54;18.20;9.40
6178;DHT22;3122;48.208;11.174;2023-07-13T01:44:54;18.10;10.90
6178;DHT22;3122;48.208;11.174;2023-07-13T01:49:55;18.10;13.10
6178;DHT22;3122;48.208;11.174;2023-07-13T01:54:56;18.10;13.00
6178;DHT22;3122;48.208;11.174;2023-07-13T01:59:56;18.10;10.20
6178;DHT22;3122;48.208;11.174;2023-07-13T02:04:57;18.10;14.60
6178;DHT22;3122;48.208;11.174;2023-07-13T02:09:58;18.00;13.70
6178;DHT22;3122;48.208;11.174;2023-07-13T02:14:58;17.90;13.90
6178;DHT22;3122;48.208;11.174;2023-07-13T02:19:59;17.90;11.30
6178;DHT22;3122;48.208;11.174;2023-07-13T02:24:59;17.70;11.30
6178;DHT22;3122;48.208;11.174;2023-07-13T02:30:00;17.60;12.90
6178;DHT22;3122;48.208;11.174;2023-07-13T02:35:01;17.50;13.60
6178;DHT22;3122;48.208;11.174;2023-07-13T02:40:02;17.40;11.80
6178;DHT22;3122;48.208;11.174;2023-07-13T02:45:09;17.40;11.10
6178;DHT22;3122;48.208;11.174;2023-07-13T02:50:09;17.30;10.90
6178;DHT22;3122;48.208;11.174;2023-07-13T02:55:10;17.20;12.10
6178;DHT22;3122;48.208;11.174;2023-07-13T03:00:11;17.20;10.00
6178;DHT22;3122;48.208;11.174;2023-07-13T03:05:12;17.30;7.80
6178;DHT22;3122;48.208;11.174;2023-07-13T03:10:13;17.20;7.10
6178;DHT22;3122;48.208;11.174;2023-07-13T03:15:13;17.10;8.20
6178;DHT22;3122;48.208;11.174;2023-07-13T03:20:14;17.10;8.20
6178;DHT22;3122;48.208;11.174;2023-07-13T03:25:14;17.10;8.60
6178;DHT22;3122;48.208;11.174;2023-07-13T03:30:15;17.00;11.00
6178;DHT22;3122;48.208;11.174;2023-07-13T03:35:16;17.10;11.60
6178;DHT22;3122;48.208;11.174;2023-07-13T03:40:16;17.10;11.30
6178;DHT22;3122;48.208;11.174;2023-07-13T03:45:17;17.10;9.70
6178;DHT22;3122;48.208;11.174;2023-07-13T03:50:17;17.00;10.10
6178;DHT22;3122;48.208;11.174;2023-07-13T03:55:18;17.10;10.50
6178;DHT22;3122;48.208;11.174;2023-07-13T04:00:19;17.10;10.00
6178;DHT22;3122;48.208;11.174;2023-07-13T04:05:20;17.20;8.30
6178;DHT22;3122;48.208;11.174;2023-07-13T04:10:20;17.10;9.90
6178;DHT22;3122;48.208;11.174;2023-07-13T04:15:21;17.10;7.60
6178;DHT22;3122;48.208;11.174;2023-07-13T04:20:21;17.10;6.20
6178;DHT22;3122;48.208;11.174;2023-07-13T04:25:22;17.10;8.60
6178;DHT22;3122;48.208;11.174;2023-07-13T04:30:23;17.20;8.50
6178;DHT22;3122;48.208;11.174;2023-07-13T04:35:23;17.20;6.60
6178;DHT22;3122;48.208;11.174;2023-07-13T04:40:27;17.20;6.50
6178;DHT22;3122;48.208;11.174;2023-07-13T04:45:28;17.30;6.60
6178;DHT22;3122;48.208;11.174;2023-07-13T04:50:29;17.20;6.20
6178;DHT22;3122;48.208;11.174;2023-07-13T04:55:30;17.20;6.70
6178;DHT22;3122;48.208;11.174;2023-07-13T05:00:31;17.20;7.00
6178;DHT22;3122;48.208;11.174;2023-07-13T05:05:32;17.10;5.30
6178;DHT22;3122;48.208;11.174;2023-07-13T05:10:34;17.00;7.90
6178;DHT22;3122;48.208;11.174;2023-07-13T05:15:35;17.10;7.80
6178;DHT22;3122;48.208;11.174;2023-07-13T05:20:36;17.10;6.40
6178;DHT22;3122;48.208;11.174;2023-07-13T05:25:37;17.00;6.40
6178;DHT22;3122;48.208;11.174;2023-07-13T05:30:37;17.00;4.30
6178;DHT22;3122;48.208;11.174;2023-07-13T05:35:38;17.20;7.40
6178;DHT22;3122;48.208;11.174;2023-07-13T05:40:38;17.40;5.80
6178;DHT22;3122;48.208;11.174;2023-07-13T05:45:39;17.70;3.10
6178;DHT22;3122;48.208;11.174;2023-07-13T05:50:40;17.80;1.00
6178;DHT22;3122;48.208;11.174;2023-07-13T05:55:42;17.70;1.00
6178;DHT22;3122;48.208;11.174;2023-07-13T06:00:43;17.60;1.00
6178;DHT22;3122;48.208;11.174;2023-07-13T06:05:44;17.80;1.00
6178;DHT22;3122;48.208;11.174;2023-07-13T06:10:45;17.90;1.00
6178;DHT22;3122;48.208;11.174;2023-07-13T06:15:49;18.10;1.00
6178;DHT22;3122;48.208;11.174;2023-07-13T06:20:50;18.10;1.00
6178;DHT22;3122;48.208;11.174;2023-07-13T06:25:51;18.10;1.00
6178;DHT22;3122;48.208;11.174;2023-07-13T06:30:51;17.90;1.00
6178;DHT22;3122;48.208;11.174;2023-07-13T06:35:52;17.90;1.00
6178;DHT22;3122;48.208;11.174;2023-07-13T06:40:53;17.90;1.00
6178;DHT22;3122;48.208;11.174;2023-07-13T06:45:55;17.80;1.00
6178;DHT22;3122;48.208;11.174;2023-07-13T06:50:56;17.90;1.00
6178;DHT22;3122;48.208;11.174;2023-07-13T06:55:57;17.80;1.00
6178;DHT22;3122;48.208;11.174;2023-07-13T07:00:57;17.80;1.00
6178;DHT22;3122;48.208;11.174;2023-07-13T07:06:23;17.60;1.00
6178;DHT22;3122;48.208;11.174;2023-07-13T07:11:26;17.50;1.00
6178;DHT22;3122;48.208;11.174;2023-07-13T07:16:26;17.60;1.00
6178;DHT22;3122;48.208;11.174;2023-07-13T07:21:27;17.50;1.00
6178;DHT22;3122;48.208;11.174;2023-07-13T07:26:27;17.40;1.00
6178;DHT22;3122;48.208;11.174;2023-07-13T07:31:28;17.30;1.00
6178;DHT22;3122;48.208;11.174;2023-07-13T07:36:29;17.20;1.00
6178;DHT22;3122;48.208;11.174;2023-07-13T07:41:29;17.10;1.00
6178;DHT22;3122;48.208;11.174;2023-07-13T07:46:30;17.20;1.00
6178;DHT22;3122;48.208;11.174;2023-07-13T07:51:30;17.30;1.00
6178;DHT22;3122;48.208;11.174;2023-07-13T07:56:31;17.40;1.00
6178;DHT22;3122;48.208;11.174;2023-07-13T08:01:32;17.60;1.00
6178;DHT22;3122;48.208;11.174;2023-07-13T08:06:33;17.70;1.00
6178;DHT22;3122;48.208;11.174;2023-07-13T08:11:34;17.90;1.00
6178;DHT22;3122;48.208;11.174;2023-07-13T08:16:35;18.30;1.00
6178;DHT22;3122;48.208;11.174;2023-07-13T08:21:35;18.70;1.00
6178;DHT22;3122;48.208;11.174;2023-07-13T08:26:37;18.60;1.00
6178;DHT22;3122;48.208;11.174;2023-07-13T08:31:38;18.50;1.00
6178;DHT22;3122;48.208;11.174;2023-07-13T08:36:38;18.20;1.00
6178;DHT22;3122;48.208;11.174;2023-07-13T08:41:39;18.30;1.00
6178;DHT22;3122;48.208;11.174;2023-07-13T08:46:40;18.40;1.00
6178;DHT22;3122;48.208;11.174;2023-07-13T08:51:45;18.40;1.00
6178;DHT22;3122;48.208;11.174;2023-07-13T08:56:48;18.40;1.00
6178;DHT22;3122;48.208;11.174;2023-07-13T09:02:19;18.50;1.00
6178;DHT22;3122;48.208;11.174;2023-07-13T09:17:48;18.80;1.00
6178;DHT22;3122;48.208;11.174;2023-07-13T09:22:50;18.80;1.00
6178;DHT22;3122;48.208;11.174;2023-07-13T09:27:53;18.80;1.00
6178;DHT22;3122;48.208;11.174;2023-07-13T09:32:55;18.90;1.00
6178;DHT22;3122;48.208;11.174;2023-07-13T09:38:17;19.00;1.00
6178;DHT22;3122;48.208;11.174;2023-07-13T09:43:18;19.10;1.00
6178;DHT22;3122;48.208;11.174;2023-07-13T09:48:20;19.20;1.00
6178;DHT22;3122;48.208;11.174;2023-07-13T09:53:21;19.10;1.00
6178;DHT22;3122;48.208;11.174;2023-07-13T09:58:25;19.00;1.00
6178;DHT22;3122;48.208;11.174;2023-07-13T10:03:33;19.20;1.00
6178;DHT22;3122;48.208;11.174;2023-07-13T10:08:38;19.40;1.00
6178;DHT22;3122;48.208;11.174;2023-07-13T10:24:26;19.80;1.00
6178;DHT22;3122;48.208;11.174;2023-07-13T10:29:28;20.00;1.00
6178;DHT22;3122;48.208;11.174;2023-07-13T10:34:30;20.10;1.00
6178;DHT22;3122;48.208;11.174;2023-07-13T10:39:33;20.30;1.00
6178;DHT22;3122;48.208;11.174;2023-07-13T10:44:34;20.50;1.00
6178;DHT22;3122;48.208;11.174;2023-07-13T10:49:35;20.80;1.00
6178;DHT22;3122;48.208;11.174;2023-07-13T10:54:36;20.60;1.00
6178;DHT22;3122;48.208;11.174;2023-07-13T10:59:37;20.90;1.00
6178;DHT22;3122;48.208;11.174;2023-07-13T11:04:47;21.30;1.00
6178;DHT22;3122;48.208;11.174;2023-07-13T11:09:56;21.30;1.00
6178;DHT22;3122;48.208;11.174;2023-07-13T11:15:05;21.10;1.00
6178;DHT22;3122;48.208;11.174;2023-07-13T11:20:21;21.20;1.00
6178;DHT22;3122;48.208;11.174;2023-07-13T11:30:38;21.50;1.00
6178;DHT22;3122;48.208;11.174;2023-07-13T11:35:51;21.70;1.00
6178;DHT22;3122;48.208;11.174;2023-07-13T11:40:54;22.00;1.00
6178;DHT22;3122;48.208;11.174;2023-07-13T11:45:55;22.20;1.00
6178;DHT22;3122;48.208;11.174;2023-07-13T11:51:03;22.00;1.00
6178;DHT22;3122;48.208;11.174;2023-07-13T11:56:06;21.70;1.00
6178;DHT22;3122;48.208;11.174;2023-07-13T12:01:06;21.70;1.00
6178;DHT22;3122;48.208;11.174;2023-07-13T12:06:26;21.50;1.00
6178;DHT22;3122;48.208;11.174;2023-07-13T12:11:28;21.60;1.00
6178;DHT22;3122;48.208;11.174;2023-07-13T12:16:31;21.50;1.00
6178;DHT22;3122;48.208;11.174;2023-07-13T12:21:36;21.10;1.00
6178;DHT22;3122;48.208;11.174;2023-07-13T12:26:37;21.40;1.00
6178;DHT22;3122;48.208;11.174;2023-07-13T12:31:42;21.40;1.00
6178;DHT22;3122;48.208;11.174;2023-07-13T12:36:50;21.50;1.00
6178;DHT22;3122;48.208;11.174;2023-07-13T12:41:52;21.40;1.00
6178;DHT22;3122;48.208;11.174;2023-07-13T12:46:59;21.50;1.00
6178;DHT22;3122;48.208;11.174;2023-07-13T12:52:09;21.80;1.00
6178;DHT22;3122;48.208;11.174;2023-07-13T12:57:16;21.70;1.00
6178;DHT22;3122;48.208;11.174;2023-07-13T13:02:29;21.80;1.00
6178;DHT22;3122;48.208;11.174;2023-07-13T13:07:31;22.20;1.00
6178;DHT22;3122;48.208;11.174;2023-07-13T13:12:31;22.30;1.00
6178;DHT22;3122;48.208;11.174;2023-07-13T13:17:32;22.70;1.00
6178;DHT22;3122;48.208;11.174;2023-07-13T13:22:33;22.80;1.00
6178;DHT22;3122;48.208;11.174;2023-07-13T13:27:34;22.80;1.00
6178;DHT22;3122;48.208;11.174;2023-07-13T13:32:35;22.50;1.00
6178;DHT22;3122;48.208;11.174;2023-07-13T13:37:35;23.00;1.00
6178;DHT22;3122;48.208;11.174;2023-07-13T13:42:36;23.10;1.00
6178;DHT22;3122;48.208;11.174;2023-07-13T13:47:37;23.60;1.00
6178;DHT22;3122;48.208;11.174;2023-07-13T13:52:37;23.40;1.00
6178;DHT22;3122;48.208;11.174;2023-07-13T13:57:38;23.60;1.00
6178;DHT22;3122;48.208;11.174;2023-07-13T14:02:39;23.40;1.00
6178;DHT22;3122;48.208;11.174;2023-07-13T14:07:41;23.90;1.00
6178;DHT22;3122;48.208;11.174;2023-07-13T14:12:43;24.00;1.00
6178;DHT22;3122;48.208;11.174;2023-07-13T14:17:44;24.50;1.00
6178;DHT22;3122;48.208;11.174;2023-07-13T14:22:46;24.40;1.00
6178;DHT22;3122;48.208;11.174;2023-07-13T14:27:51;23.30;1.00
6178;DHT22;3122;48.208;11.174;2023-07-13T14:32:53;23.30;1.00
6178;DHT22;3122;48.208;11.174;2023-07-13T14:37:54;24.30;1.00
6178;DHT22;3122;48.208;11.174;2023-07-13T14:42:54;24.10;1.00
6178;DHT22;3122;48.208;11.174;2023-07-13T14:47:55;24.30;1.00
6178;DHT22;3122;48.208;11.174;2023-07-13T14:52:55;24.30;1.00
6178;DHT22;3122;48.208;11.174;2023-07-13T14:57:56;24.70;1.00
6178;DHT22;3122;48.208;11.174;2023-07-13T15:02:59;24.90;1.00
6178;DHT22;3122;48.208;11.174;2023-07-13T15:08:02;24.20;1.00
6178;DHT22;3122;48.208;11.174;2023-07-13T15:13:18;24.70;1.00
6178;DHT22;3122;48.208;11.174;2023-07-13T15:18:21;24.50;1.00
6178;DHT22;3122;48.208;11.174;2023-07-13T15:23:22;24.60;1.00
6178;DHT22;3122;48.208;11.174;2023-07-13T15:28:23;24.90;1.00
6178;DHT22;3122;48.208;11.174;2023-07-13T15:33:28;25.10;1.00
6178;DHT22;3122;48.208;11.174;2023-07-13T15:38:30;25.50;1.00
6178;DHT22;3122;48.208;11.174;2023-07-13T15:43:32;25.20;1.00
6178;DHT22;3122;48.208;11.174;2023-07-13T15:48:34;25.90;1.00
6178;DHT22;3122;48.208;11.174;2023-07-13T15:53:35;26.20;1.00
6178;DHT22;3122;48.208;11.174;2023-07-13T15:58:38;26.00;1.00
6178;DHT22;3122;48.208;11.174;2023-07-13T16:03:39;25.50;1.00
6178;DHT22;3122;48.208;11.174;2023-07-13T16:08:39;25.00;1.00
6178;DHT22;3122;48.208;11.174;2023-07-13T16:13:41;24.20;1.00
6178;DHT22;3122;48.208;11.174;2023-07-13T16:18:41;24.10;1.00
6178;DHT22;3122;48.208;11.174;2023-07-13T16:23:42;23.90;1.00
6178;DHT22;3122;48.208;11.174;2023-07-13T16:28:45;23.40;1.00
6178;DHT22;3122;48.208;11.174;2023-07-13T16:33:45;23.60;1.00
6178;DHT22;3122;48.208;11.174;2023-07-13T16:38:46;24.10;1.00
6178;DHT22;3122;48.208;11.174;2023-07-13T16:43:46;24.90;1.00
6178;DHT22;3122;48.208;11.174;2023-07-13T16:48:47;25.30;1.00
6178;DHT22;3122;48.208;11.174;2023-07-13T16:53:48;24.30;1.00
6178;DHT22;3122;48.208;11.174;2023-07-13T16:58:48;23.70;1.00
6178;DHT22;3122;48.208;11.174;2023-07-13T17:03:49;23.80;1.00
6178;DHT22;3122;48.208;11.174;2023-07-13T17:09:01;23.80;1.00
6178;DHT22;3122;48.208;11.174;2023-07-13T17:14:17;24.50;1.00
6178;DHT22;3122;48.208;11.174;2023-07-13T17:19:28;24.60;1.00
6178;DHT22;3122;48.208;11.174;2023-07-13T17:24:29;24.30;1.00
6178;DHT22;3122;48.208;11.174;2023-07-13T17:29:32;24.70;1.00
6178;DHT22;3122;48.208;11.174;2023-07-13T17:34:34;25.00;1.00
6178;DHT22;3122;48.208;11.174;2023-07-13T17:39:34;24.60;1.00
6178;DHT22;3122;48.208;11.174;2023-07-13T17:44:35;24.30;1.00
6178;DHT22;3122;48.208;11.174;2023-07-13T17:49:35;24.20;1.00
6178;DHT22;3122;48.208;11.174;2023-07-13T17:54:37;24.10;1.00
6178;DHT22;3122;48.208;11.174;2023-07-13T17:59:37;23.80;1.00
6178;DHT22;3122;48.208;11.174;2023-07-13T18:04:38;23.60;1.00
6178;DHT22;3122;48.208;11.174;2023-07-13T18:09:38;23.50;1.00
6178;DHT22;3122;48.208;11.174;2023-07-13T18:14:40;23.40;1.00
6178;DHT22;3122;48.208;11.174;2023-07-13T18:19:44;23.40;1.00
6178;DHT22;3122;48.208;11.174;2023-07-13T18:24:46;23.20;1.00
6178;DHT22;3122;48.208;11.174;2023-07-13T18:29:47;22.90;1.00
6178;DHT22;3122;48.208;11.174;2023-07-13T18:34:48;22.70;1.00
6178;DHT22;3122;48.208;11.174;2023-07-13T18:39:52;22.50;1.00
6178;DHT22;3122;48.208;11.174;2023-07-13T18:44:52;22.40;1.00
6178;DHT22;3122;48.208;11.174;2023-07-13T18:49:53;22.30;1.00
6178;DHT22;3122;48.208;11.174;2023-07-13T18:54:56;22.10;1.00
6178;DHT22;3122;48.208;11.174;2023-07-13T18:59:57;21.90;1.00
6178;DHT22;3122;48.208;11.174;2023-07-13T19:04:57;21.80;1.00
6178;DHT22;3122;48.208;11.174;2023-07-13T19:10:19;21.70;1.00
6178;DHT22;3122;48.208;11.174;2023-07-13T19:20:28;21.50;1.00
6178;DHT22;3122;48.208;11.174;2023-07-13T19:25:29;21.30;1.00
6178;DHT22;3122;48.208;11.174;2023-07-13T19:30:30;21.20;1.00
6178;DHT22;3122;48.208;11.174;2023-07-13T19:35:30;21.20;1.00
6178;DHT22;3122;48.208;11.174;2023-07-13T19:40:32;21.10;1.00
6178;DHT22;3122;48.208;11.174;2023-07-13T19:45:32;21.10;1.00
6178;DHT22;3122;48.208;11.174;2023-07-13T19:50:34;20.90;1.00
6178;DHT22;3122;48.208;11.174;2023-07-13T19:55:35;20.80;1.00
6178;DHT22;3122;48.208;11.174;2023-07-13T20:00:36;20.80;1.00
6178;DHT22;3122;48.208;11.174;2023-07-13T20:05:39;20.70;1.00
6178;DHT22;3122;48.208;11.174;2023-07-13T20:10:39;20.60;1.00
6178;DHT22;3122;48.208;11.174;2023-07-13T20:15:40;20.50;1.00
6178;DHT22;3122;48.208;11.174;2023-07-13T20:20:43;20.40;1.00
6178;DHT22;3122;48.208;11.174;2023-07-13T20:25:48;20.40;1.00
6178;DHT22;3122;48.208;11.174;2023-07-13T20:30:49;20.10;1.00
6178;DHT22;3122;48.208;11.174;2023-07-13T20:35:51;19.90;1.00
6178;DHT22;3122;48.208;11.174;2023-07-13T20:40:53;19.80;1.00
6178;DHT22;3122;48.208;11.174;2023-07-13T20:45:57;19.80;1.00
6178;DHT22;3122;48.208;11.174;2023-07-13T20:50:59;19.70;1.00
6178;DHT22;3122;48.208;11.174;2023-07-13T20:56:00;19.60;1.00
6178;DHT22;3122;48.208;11.174;2023-07-13T21:01:01;19.70;1.00
6178;DHT22;3122;48.208;11.174;2023-07-13T21:06:15;19.70;1.00
6178;DHT22;3122;48.208;11.174;2023-07-13T21:11:16;19.70;1.00
6178;DHT22;3122;48.208;11.174;2023-07-13T21:16:20;19.70;1.00
6178;DHT22;3122;48.208;11.174;2023-07-13T21:21:23;19.70;1.00
6178;DHT22;3122;48.208;11.174;2023-07-13T21:26:24;19.60;1.00
6178;DHT22;3122;48.208;11.174;2023-07-13T21:31:31;19.60;1.00
6178;DHT22;3122;48.208;11.174;2023-07-13T21:36:32;19.70;1.00
6178;DHT22;3122;48.208;11.174;2023-07-13T21:41:35;19.80;1.00
6178;DHT22;3122;48.208;11.174;2023-07-13T21:46:36;19.60;1.00
6178;DHT22;3122;48.208;11.174;2023-07-13T21:51:37;19.50;1.00
6178;DHT22;3122;48.208;11.174;2023-07-13T21:56:37;19.50;1.00
6178;DHT22;3122;48.208;11.174;2023-07-13T22:01:38;19.30;1.00
6178;DHT22;3122;48.208;11.174;2023-07-13T22:06:38;19.30;1.00
6178;DHT22;3122;48.208;11.174;2023-07-13T22:11:39;19.20;1.00
6178;DHT22;3122;48.208;11.174;2023-07-13T22:16:40;18.80;1.00
6178;DHT22;3122;48.208;11.174;2023-07-13T22:21:40;18.50;1.00
6178;DHT22;3122;48.208;11.174;2023-07-13T22:26:41;18.50;1.00
6178;DHT22;3122;48.208;11.174;2023-07-13T22:31:42;18.50;1.00
6178;DHT22;3122;48.208;11.174;2023-07-13T22:36:46;18.70;1.00
6178;DHT22;3122;48.208;11.174;2023-07-13T22:41:47;18.60;1.00
6178;DHT22;3122;48.208;11.174;2023-07-13T22:46:48;18.80;1.00
6178;DHT22;3122;48.208;11.174;2023-07-13T22:51:54;18.90;1.00
6178;DHT22;3122;48.208;11.174;2023-07-13T22:56:55;18.80;1.00
6178;DHT22;3122;48.208;11.174;2023-07-13T23:01:56;18.70;1.00
6178;DHT22;3122;48.208;11.174;2023-07-13T23:06:57;18.50;1.00
6178;DHT22;3122;48.208;11.174;2023-07-13T23:11:58;18.50;1.00
6178;DHT22;3122;48.208;11.174;2023-07-13T23:16:59;18.50;1.00
6178;DHT22;3122;48.208;11.174;2023-07-13T23:22:01;18.50;1.00
6178;DHT22;3122;48.208;11.174;2023-07-13T23:27:02;18.50;1.00
6178;DHT22;3122;48.208;11.174;2023-07-13T23:32:03;18.50;1.00
6178;DHT22;3122;48.208;11.174;2023-07-13T23:37:15;18.50;1.00
6178;DHT22;3122;48.208;11.174;2023-07-13T23:42:16;18.50;1.00
6178;DHT22;3122;48.208;11.174;2023-07-13T23:47:17;18.50;1.00
6178;DHT22;3122;48.208;11.174;2023-07-13T23:52:18;18.40;1.00
6178;DHT22;3122;48.208;11.174;2023-07-13T23:57:19;18.40;1.00
